createdAt,value
2019-02-28T00:00:42.503Z,1020.9
2019-02-28T00:01:46.259Z,1020.9
2019-02-28T00:02:40.861Z,1020.85
2019-02-28T00:03:40.616Z,1020.83
2019-02-28T00:04:41.050Z,1020.84
2019-02-28T00:05:41.169Z,1020.86
2019-02-28T00:06:45.122Z,1020.82
2019-02-28T00:07:40.676Z,1020.87
2019-02-28T00:08:41.226Z,1020.85
2019-02-28T00:09:40.880Z,1020.86
2019-02-28T00:10:42.491Z,1020.88
2019-02-28T00:11:40.771Z,1020.83
2019-02-28T00:12:41.103Z,1020.83
2019-02-28T00:13:40.772Z,1020.83
2019-02-28T00:14:40.760Z,1020.86
2019-02-28T00:15:41.042Z,1020.84
2019-02-28T00:16:40.756Z,1020.82
2019-02-28T00:17:43.725Z,1020.82
2019-02-28T00:18:40.859Z,1020.81
2019-02-28T00:19:41.473Z,1020.77
2019-02-28T00:20:40.647Z,1020.77
2019-02-28T00:21:41.428Z,1020.76
2019-02-28T00:22:40.616Z,1020.74
2019-02-28T00:23:41.080Z,1020.74
2019-02-28T00:24:40.873Z,1020.76
2019-02-28T00:25:42.455Z,1020.74
2019-02-28T00:26:47.681Z,1020.69
2019-02-28T00:27:41.005Z,1020.74
2019-02-28T00:28:41.110Z,1020.74
2019-02-28T00:29:40.707Z,1020.67
2019-02-28T00:30:41.700Z,1020.68
2019-02-28T00:31:40.694Z,1020.67
2019-02-28T00:32:41.058Z,1020.64
2019-02-28T00:33:40.666Z,1020.64
2019-02-28T00:34:40.599Z,1020.67
2019-02-28T00:35:41.196Z,1020.72
2019-02-28T00:36:42.449Z,1020.68
2019-02-28T00:37:40.570Z,1020.66
2019-02-28T00:38:40.623Z,1020.64
2019-02-28T00:39:40.649Z,1020.65
2019-02-28T00:40:41.224Z,1020.56
2019-02-28T00:41:44.768Z,1020.58
2019-02-28T00:42:40.896Z,1020.56
2019-02-28T00:43:40.593Z,1020.51
2019-02-28T00:44:40.589Z,1020.54
2019-02-28T00:45:41.016Z,1020.5
2019-02-28T00:46:45.364Z,1020.56
2019-02-28T00:47:40.761Z,1020.6
2019-02-28T00:48:40.580Z,1020.51
2019-02-28T00:49:40.643Z,1020.48
2019-02-28T00:50:40.562Z,1020.49
2019-02-28T00:51:40.700Z,1020.53
2019-02-28T00:52:42.425Z,1020.48
2019-02-28T00:53:40.729Z,1020.45
2019-02-28T00:54:44.586Z,1020.46
2019-02-28T00:55:40.617Z,1020.45
2019-02-28T00:56:41.144Z,1020.36
2019-02-28T00:57:42.129Z,1020.36
2019-02-28T00:58:41.110Z,1020.34
2019-02-28T00:59:40.611Z,1020.32
2019-02-28T01:00:41.024Z,1020.35
2019-02-28T01:01:45.859Z,1020.28
2019-02-28T01:02:41.036Z,1020.35
2019-02-28T01:03:40.679Z,1020.34
2019-02-28T01:04:40.739Z,1020.26
2019-02-28T01:05:40.669Z,1020.25
2019-02-28T01:06:42.531Z,1020.23
2019-02-28T01:07:40.586Z,1020.31
2019-02-28T01:08:40.519Z,1020.2
2019-02-28T01:09:40.552Z,1020.25
2019-02-28T01:10:40.808Z,1020.26
2019-02-28T01:11:40.366Z,1020.23
2019-02-28T01:12:40.598Z,1020.24
2019-02-28T01:13:40.793Z,1020.25
2019-02-28T01:14:40.898Z,1020.18
2019-02-28T01:15:45.741Z,1020.24
2019-02-28T01:16:41.591Z,1020.2
2019-02-28T01:17:40.630Z,1020.19
2019-02-28T01:18:42.382Z,1020.21
2019-02-28T01:19:42.433Z,1020.16
2019-02-28T01:20:40.631Z,1020.14
2019-02-28T01:21:41.319Z,1020.13
2019-02-28T01:22:41.060Z,1020.1
2019-02-28T01:23:40.527Z,1020.11
2019-02-28T01:24:41.349Z,1020.12
2019-02-28T01:25:41.035Z,1020.08
2019-02-28T01:26:47.274Z,1020.08
2019-02-28T01:27:40.785Z,1020.05
2019-02-28T01:28:41.487Z,1020.06
2019-02-28T01:29:42.385Z,1020.03
2019-02-28T01:30:41.273Z,1020.03
2019-02-28T01:31:43.400Z,1019.99
2019-02-28T01:32:40.524Z,1020
2019-02-28T01:33:40.510Z,1019.99
2019-02-28T01:34:40.563Z,1019.98
2019-02-28T01:35:41.563Z,1019.98
2019-02-28T01:36:40.636Z,1019.96
2019-02-28T01:37:40.952Z,1019.94
2019-02-28T01:38:42.355Z,1019.96
2019-02-28T01:39:40.652Z,1019.93
2019-02-28T01:40:41.451Z,1019.92
2019-02-28T01:41:45.139Z,1019.89
2019-02-28T01:42:40.660Z,1019.91
2019-02-28T01:43:40.718Z,1019.87
2019-02-28T01:44:40.606Z,1019.83
2019-02-28T01:45:44.437Z,1019.91
2019-02-28T01:46:40.804Z,1019.87
2019-02-28T01:47:40.538Z,1019.88
2019-02-28T01:48:42.343Z,1019.86
2019-02-28T01:49:40.854Z,1019.83
2019-02-28T01:50:40.844Z,1019.84
2019-02-28T01:51:41.119Z,1019.83
2019-02-28T01:52:46.024Z,1019.82
2019-02-28T01:53:42.203Z,1019.81
2019-02-28T01:54:40.511Z,1019.74
2019-02-28T01:55:40.870Z,1019.75
2019-02-28T01:56:40.579Z,1019.74
2019-02-28T01:57:44.408Z,1019.79
2019-02-28T01:58:40.560Z,1019.77
2019-02-28T01:59:41.050Z,1019.78
2019-02-28T02:00:40.615Z,1019.8
2019-02-28T02:01:41.768Z,1019.75
2019-02-28T02:02:40.615Z,1019.8
2019-02-28T02:03:41.902Z,1019.79
2019-02-28T02:04:45.827Z,1019.74
2019-02-28T02:05:40.725Z,1019.76
2019-02-28T02:06:41.130Z,1019.73
2019-02-28T02:07:40.579Z,1019.76
2019-02-28T02:08:40.748Z,1019.75
2019-02-28T02:09:46.825Z,1019.69
2019-02-28T02:10:40.439Z,1019.71
2019-02-28T02:11:40.581Z,1019.71
2019-02-28T02:12:40.616Z,1019.72
2019-02-28T02:13:41.089Z,1019.68
2019-02-28T02:14:45.698Z,1019.66
2019-02-28T02:15:40.558Z,1019.62
2019-02-28T02:16:40.453Z,1019.61
2019-02-28T02:17:42.524Z,1019.63
2019-02-28T02:18:44.335Z,1019.61
2019-02-28T02:19:40.461Z,1019.62
2019-02-28T02:20:40.728Z,1019.56
2019-02-28T02:21:40.632Z,1019.57
2019-02-28T02:22:45.311Z,1019.54
2019-02-28T02:23:40.447Z,1019.53
2019-02-28T02:24:40.426Z,1019.54
2019-02-28T02:25:40.864Z,1019.53
2019-02-28T02:26:45.270Z,1019.53
2019-02-28T02:27:41.441Z,1019.56
2019-02-28T02:28:40.500Z,1019.51
2019-02-28T02:29:40.506Z,1019.56
2019-02-28T02:30:40.691Z,1019.58
2019-02-28T02:31:43.785Z,1019.55
2019-02-28T02:32:40.706Z,1019.59
2019-02-28T02:33:40.658Z,1019.47
2019-02-28T02:34:40.743Z,1019.56
2019-02-28T02:35:43.685Z,1019.55
2019-02-28T02:36:41.038Z,1019.51
2019-02-28T02:37:40.490Z,1019.48
2019-02-28T02:38:41.932Z,1019.47
2019-02-28T02:39:42.295Z,1019.49
2019-02-28T02:40:40.489Z,1019.45
2019-02-28T02:41:40.766Z,1019.43
2019-02-28T02:42:48.347Z,1019.44
2019-02-28T02:43:40.982Z,1019.52
2019-02-28T02:44:40.502Z,1019.38
2019-02-28T02:45:43.940Z,1019.46
2019-02-28T02:46:41.114Z,1019.44
2019-02-28T02:47:40.506Z,1019.38
2019-02-28T02:48:43.393Z,1019.43
2019-02-28T02:49:41.084Z,1019.33
2019-02-28T02:50:42.264Z,1019.4
2019-02-28T02:51:50.255Z,1019.32
2019-02-28T02:52:40.414Z,1019.31
2019-02-28T02:53:43.271Z,1019.27
2019-02-28T02:54:42.252Z,1019.22
2019-02-28T02:55:41.048Z,1019.29
2019-02-28T02:56:42.299Z,1019.23
2019-02-28T02:57:40.665Z,1019.23
2019-02-28T02:58:40.671Z,1019.21
2019-02-28T02:59:40.482Z,1019.2
2019-02-28T03:00:40.813Z,1019.19
2019-02-28T03:01:40.417Z,1019.15
2019-02-28T03:02:40.524Z,1019.16
2019-02-28T03:03:44.602Z,1019.14
2019-02-28T03:04:41.747Z,1019.16
2019-02-28T03:05:40.532Z,1019.14
2019-02-28T03:06:40.388Z,1019.12
2019-02-28T03:07:40.731Z,1019.1
2019-02-28T03:08:42.246Z,1019.08
2019-02-28T03:09:44.754Z,1019.07
2019-02-28T03:10:40.452Z,1019.06
2019-02-28T03:11:40.561Z,1019.04
2019-02-28T03:12:41.390Z,1019.02
2019-02-28T03:13:44.251Z,1018.99
2019-02-28T03:14:40.678Z,1018.98
2019-02-28T03:15:40.588Z,1019.01
2019-02-28T03:16:40.793Z,1018.93
2019-02-28T03:17:48.423Z,1018.97
2019-02-28T03:18:41.421Z,1018.96
2019-02-28T03:19:41.129Z,1018.94
2019-02-28T03:20:42.620Z,1018.99
2019-02-28T03:21:42.213Z,1018.98
2019-02-28T03:22:40.345Z,1018.97
2019-02-28T03:23:40.795Z,1018.97
2019-02-28T03:24:40.642Z,1018.94
2019-02-28T03:25:40.527Z,1018.95
2019-02-28T03:26:43.339Z,1018.94
2019-02-28T03:27:41.352Z,1018.93
2019-02-28T03:28:40.507Z,1018.93
2019-02-28T03:29:44.933Z,1018.94
2019-02-28T03:30:40.437Z,1018.95
2019-02-28T03:31:40.367Z,1018.93
2019-02-28T03:32:43.045Z,1018.94
2019-02-28T03:33:40.774Z,1018.94
2019-02-28T03:34:41.208Z,1018.92
2019-02-28T03:35:44.389Z,1018.92
2019-02-28T03:36:40.670Z,1018.9
2019-02-28T03:37:40.419Z,1018.9
2019-02-28T03:38:49.874Z,1018.86
2019-02-28T03:39:40.619Z,1018.86
2019-02-28T03:40:41.396Z,1018.91
2019-02-28T03:41:40.360Z,1018.9
2019-02-28T03:42:40.473Z,1018.9
2019-02-28T03:43:44.215Z,1018.91
2019-02-28T03:44:41.241Z,1018.9
2019-02-28T03:45:40.354Z,1018.92
2019-02-28T03:46:47.806Z,1018.89
2019-02-28T03:47:40.398Z,1018.94
2019-02-28T03:48:42.176Z,1018.92
2019-02-28T03:49:40.448Z,1018.93
2019-02-28T03:50:40.466Z,1018.93
2019-02-28T03:51:40.435Z,1018.98
2019-02-28T03:52:44.805Z,1018.95
2019-02-28T03:53:40.459Z,1018.97
2019-02-28T03:54:41.368Z,1018.91
2019-02-28T03:55:41.755Z,1018.94
2019-02-28T03:56:40.865Z,1018.91
2019-02-28T03:57:42.184Z,1018.92
2019-02-28T03:58:43.249Z,1018.9
2019-02-28T03:59:40.728Z,1018.92
2019-02-28T04:00:40.686Z,1018.88
2019-02-28T04:01:46.392Z,1018.9
2019-02-28T04:02:40.385Z,1018.91
2019-02-28T04:03:40.910Z,1018.91
2019-02-28T04:04:50.248Z,1018.92
2019-02-28T04:05:40.610Z,1018.92
2019-02-28T04:06:41.156Z,1018.93
2019-02-28T04:07:40.346Z,1018.96
2019-02-28T04:08:40.305Z,1018.94
2019-02-28T04:09:45.220Z,1018.95
2019-02-28T04:10:40.327Z,1018.96
2019-02-28T04:11:40.974Z,1018.95
2019-02-28T04:12:46.892Z,1018.92
2019-02-28T04:13:40.373Z,1018.92
2019-02-28T04:14:40.581Z,1018.89
2019-02-28T04:16:07.368Z,1018.87
2019-02-28T04:16:40.321Z,1018.88
2019-02-28T04:17:40.377Z,1018.88
2019-02-28T04:18:46.785Z,1018.87
2019-02-28T04:19:41.006Z,1018.89
2019-02-28T04:20:40.912Z,1018.91
2019-02-28T04:21:47.776Z,1018.93
2019-02-28T04:22:41.043Z,1018.93
2019-02-28T04:23:40.281Z,1018.91
2019-02-28T04:24:40.520Z,1018.94
2019-02-28T04:25:40.575Z,1018.92
2019-02-28T04:26:40.449Z,1018.93
2019-02-28T04:27:42.120Z,1018.93
2019-02-28T04:28:40.564Z,1018.97
2019-02-28T04:29:40.374Z,1018.94
2019-02-28T04:30:44.167Z,1018.95
2019-02-28T04:31:40.304Z,1018.96
2019-02-28T04:32:40.586Z,1018.97
2019-02-28T04:33:40.485Z,1018.96
2019-02-28T04:34:40.274Z,1018.96
2019-02-28T04:35:40.307Z,1018.97
2019-02-28T04:36:41.179Z,1018.99
2019-02-28T04:37:46.980Z,1018.97
2019-02-28T04:38:40.241Z,1018.99
2019-02-28T04:39:41.139Z,1018.96
2019-02-28T04:40:40.535Z,1018.95
2019-02-28T04:41:40.320Z,1018.94
2019-02-28T04:42:40.751Z,1018.99
2019-02-28T04:43:44.346Z,1018.96
2019-02-28T04:44:40.781Z,1018.92
2019-02-28T04:45:40.358Z,1018.91
2019-02-28T04:46:40.788Z,1018.94
2019-02-28T04:47:41.838Z,1018.9
2019-02-28T04:48:40.480Z,1018.9
2019-02-28T04:49:40.599Z,1018.89
2019-02-28T04:50:41.011Z,1018.94
2019-02-28T04:51:41.280Z,1018.95
2019-02-28T04:52:47.871Z,1018.97
2019-02-28T04:53:40.222Z,1019.02
2019-02-28T04:54:40.416Z,1019
2019-02-28T04:55:42.089Z,1018.97
2019-02-28T04:56:45.648Z,1018.94
2019-02-28T04:57:40.224Z,1018.97
2019-02-28T04:58:40.040Z,1018.97
2019-02-28T04:59:40.449Z,1018.98
2019-02-28T05:00:40.287Z,1019
2019-02-28T05:01:40.327Z,1018.97
2019-02-28T05:02:40.242Z,1018.96
2019-02-28T05:03:41.109Z,1018.96
2019-02-28T05:04:41.527Z,1018.93
2019-02-28T05:05:40.490Z,1018.92
2019-02-28T05:06:41.375Z,1018.94
2019-02-28T05:07:40.818Z,1018.94
2019-02-28T05:08:40.364Z,1018.94
2019-02-28T05:09:40.396Z,1018.94
2019-02-28T05:10:41.042Z,1018.92
2019-02-28T05:11:40.314Z,1018.92
2019-02-28T05:12:41.283Z,1018.91
2019-02-28T05:13:41.319Z,1018.9
2019-02-28T05:14:40.221Z,1018.94
2019-02-28T05:15:41.230Z,1018.91
2019-02-28T05:16:40.234Z,1018.94
2019-02-28T05:17:40.265Z,1018.9
2019-02-28T05:18:40.593Z,1018.92
2019-02-28T05:19:40.497Z,1018.95
2019-02-28T05:20:46.047Z,1018.9
2019-02-28T05:21:40.228Z,1018.91
2019-02-28T05:22:40.178Z,1018.93
2019-02-28T05:23:42.028Z,1019
2019-02-28T05:24:43.707Z,1018.87
2019-02-28T05:25:41.053Z,1018.95
2019-02-28T05:26:40.739Z,1018.95
2019-02-28T05:27:41.775Z,1018.98
2019-02-28T05:28:41.525Z,1018.94
2019-02-28T05:29:44.810Z,1018.93
2019-02-28T05:30:41.642Z,1018.95
2019-02-28T05:31:40.241Z,1018.99
2019-02-28T05:32:40.579Z,1018.97
2019-02-28T05:33:42.960Z,1018.97
2019-02-28T05:34:40.488Z,1018.95
2019-02-28T05:35:40.486Z,1018.96
2019-02-28T05:36:40.122Z,1018.95
2019-02-28T05:37:40.194Z,1018.96
2019-02-28T05:38:40.503Z,1018.97
2019-02-28T05:39:40.305Z,1018.91
2019-02-28T05:40:41.580Z,1018.95
2019-02-28T05:41:40.304Z,1018.98
2019-02-28T05:42:40.635Z,1018.96
2019-02-28T05:43:40.308Z,1018.97
2019-02-28T05:44:41.118Z,1019
2019-02-28T05:45:40.351Z,1018.98
2019-02-28T05:46:40.359Z,1019.02
2019-02-28T05:47:47.409Z,1019.09
2019-02-28T05:48:40.372Z,1019.08
2019-02-28T05:49:42.119Z,1019.1
2019-02-28T05:50:41.217Z,1019.17
2019-02-28T05:51:40.253Z,1019.19
2019-02-28T05:52:41.015Z,1019.2
2019-02-28T05:53:42.677Z,1019.2
2019-02-28T05:54:40.573Z,1019.19
2019-02-28T05:55:40.207Z,1019.23
2019-02-28T05:56:41.006Z,1019.28
2019-02-28T05:57:44.730Z,1019.26
2019-02-28T05:58:40.291Z,1019.31
2019-02-28T05:59:40.554Z,1019.3
2019-02-28T06:00:40.247Z,1019.34
2019-02-28T06:01:46.889Z,1019.36
2019-02-28T06:02:40.182Z,1019.4
2019-02-28T06:03:40.466Z,1019.38
2019-02-28T06:04:40.376Z,1019.36
2019-02-28T06:05:40.101Z,1019.35
2019-02-28T06:06:40.148Z,1019.39
2019-02-28T06:07:40.396Z,1019.41
2019-02-28T06:08:40.500Z,1019.43
2019-02-28T06:09:40.278Z,1019.41
2019-02-28T06:10:40.315Z,1019.4
2019-02-28T06:11:40.745Z,1019.38
2019-02-28T06:12:44.726Z,1019.34
2019-02-28T06:13:40.211Z,1019.36
2019-02-28T06:14:40.966Z,1019.36
2019-02-28T06:15:40.200Z,1019.36
2019-02-28T06:16:40.075Z,1019.39
2019-02-28T06:17:40.210Z,1019.36
2019-02-28T06:18:40.201Z,1019.39
2019-02-28T06:19:44.282Z,1019.35
2019-02-28T06:20:40.097Z,1019.38
2019-02-28T06:21:40.083Z,1019.36
2019-02-28T06:22:40.232Z,1019.37
2019-02-28T06:23:41.604Z,1019.37
2019-02-28T06:24:40.108Z,1019.37
2019-02-28T06:25:40.098Z,1019.4
2019-02-28T06:26:40.728Z,1019.39
2019-02-28T06:27:48.696Z,1019.38
2019-02-28T06:28:40.201Z,1019.39
2019-02-28T06:29:40.568Z,1019.37
2019-02-28T06:30:42.712Z,1019.38
2019-02-28T06:31:40.102Z,1019.38
2019-02-28T06:32:40.496Z,1019.38
2019-02-28T06:33:40.368Z,1019.43
2019-02-28T06:34:43.009Z,1019.42
2019-02-28T06:35:40.176Z,1019.39
2019-02-28T06:36:41.920Z,1019.4
2019-02-28T06:37:40.397Z,1019.41
2019-02-28T06:38:40.166Z,1019.39
2019-02-28T06:39:40.296Z,1019.41
2019-02-28T06:40:40.174Z,1019.43
2019-02-28T06:41:40.973Z,1019.43
2019-02-28T06:42:40.177Z,1019.44
2019-02-28T06:43:40.202Z,1019.45
2019-02-28T06:44:40.090Z,1019.44
2019-02-28T06:45:40.045Z,1019.42
2019-02-28T06:46:40.924Z,1019.43
2019-02-28T06:47:40.246Z,1019.42
2019-02-28T06:48:40.132Z,1019.4
2019-02-28T06:49:42.136Z,1019.41
2019-02-28T06:50:40.251Z,1019.41
2019-02-28T06:51:41.902Z,1019.4
2019-02-28T06:52:40.388Z,1019.4
2019-02-28T06:53:40.036Z,1019.41
2019-02-28T06:54:41.255Z,1019.42
2019-02-28T06:55:40.155Z,1019.41
2019-02-28T06:56:40.721Z,1019.39
2019-02-28T06:57:40.312Z,1019.43
2019-02-28T06:58:40.082Z,1019.43
2019-02-28T06:59:39.857Z,1019.45
2019-02-28T07:00:40.295Z,1019.42
2019-02-28T07:01:40.068Z,1019.43
2019-02-28T07:02:40.014Z,1019.42
2019-02-28T07:03:42.666Z,1019.44
2019-02-28T07:04:40.968Z,1019.45
2019-02-28T07:05:40.136Z,1019.42
2019-02-28T07:06:40.025Z,1019.46
2019-02-28T07:07:40.180Z,1019.44
2019-02-28T07:08:40.027Z,1019.48
2019-02-28T07:09:40.062Z,1019.54
2019-02-28T07:10:41.632Z,1019.53
2019-02-28T07:11:40.511Z,1019.59
2019-02-28T07:12:40.210Z,1019.57
2019-02-28T07:13:41.256Z,1019.6
2019-02-28T07:14:40.056Z,1019.64
2019-02-28T07:15:40.098Z,1019.63
2019-02-28T07:16:40.826Z,1019.63
2019-02-28T07:17:46.257Z,1019.64
2019-02-28T07:18:40.357Z,1019.67
2019-02-28T07:19:40.898Z,1019.68
2019-02-28T07:20:40.399Z,1019.67
2019-02-28T07:21:44.409Z,1019.67
2019-02-28T07:22:41.898Z,1019.64
2019-02-28T07:23:40.004Z,1019.69
2019-02-28T07:24:41.888Z,1019.68
2019-02-28T07:25:40.403Z,1019.68
2019-02-28T07:26:40.510Z,1019.68
2019-02-28T07:27:39.976Z,1019.7
2019-02-28T07:28:40.240Z,1019.66
2019-02-28T07:29:43.570Z,1019.7
2019-02-28T07:30:40.028Z,1019.67
2019-02-28T07:31:40.141Z,1019.73
2019-02-28T07:32:40.463Z,1019.67
2019-02-28T07:33:44.599Z,1019.71
2019-02-28T07:34:40.083Z,1019.68
2019-02-28T07:35:40.195Z,1019.71
2019-02-28T07:36:45.585Z,1019.71
2019-02-28T07:37:40.145Z,1019.76
2019-02-28T07:38:40.151Z,1019.75
2019-02-28T07:39:41.213Z,1019.79
2019-02-28T07:40:40.309Z,1019.76
2019-02-28T07:41:41.543Z,1019.77
2019-02-28T07:42:40.131Z,1019.76
2019-02-28T07:43:40.216Z,1019.77
2019-02-28T07:44:40.332Z,1019.74
2019-02-28T07:45:40.091Z,1019.71
2019-02-28T07:46:43.380Z,1019.72
2019-02-28T07:47:41.813Z,1019.72
2019-02-28T07:48:40.107Z,1019.7
2019-02-28T07:49:40.159Z,1019.73
2019-02-28T07:50:39.986Z,1019.73
2019-02-28T07:51:41.823Z,1019.72
2019-02-28T07:52:40.025Z,1019.68
2019-02-28T07:53:42.040Z,1019.65
2019-02-28T07:54:40.296Z,1019.61
2019-02-28T07:55:40.145Z,1019.6
2019-02-28T07:56:44.322Z,1019.56
2019-02-28T07:57:40.816Z,1019.52
2019-02-28T07:58:40.147Z,1019.45
2019-02-28T07:59:42.786Z,1019.44
2019-02-28T08:00:40.427Z,1019.4
2019-02-28T08:01:41.140Z,1019.44
2019-02-28T08:02:40.096Z,1019.45
2019-02-28T08:03:44.892Z,1019.47
2019-02-28T08:04:40.657Z,1019.53
2019-02-28T08:05:40.229Z,1019.59
2019-02-28T08:06:40.731Z,1019.59
2019-02-28T08:07:40.154Z,1019.57
2019-02-28T08:08:40.051Z,1019.64
2019-02-28T08:09:41.633Z,1019.65
2019-02-28T08:10:39.999Z,1019.69
2019-02-28T08:11:40.054Z,1019.71
2019-02-28T08:12:40.059Z,1019.73
2019-02-28T08:13:40.155Z,1019.73
2019-02-28T08:14:47.005Z,1019.73
2019-02-28T08:15:40.756Z,1019.76
2019-02-28T08:16:40.046Z,1019.74
2019-02-28T08:17:43.838Z,1019.74
2019-02-28T08:18:40.275Z,1019.75
2019-02-28T08:19:39.909Z,1019.7
2019-02-28T08:20:40.017Z,1019.69
2019-02-28T08:21:50.339Z,1019.65
2019-02-28T08:22:40.021Z,1019.64
2019-02-28T08:23:40.205Z,1019.64
2019-02-28T08:24:39.990Z,1019.59
2019-02-28T08:25:43.531Z,1019.65
2019-02-28T08:26:43.835Z,1019.62
2019-02-28T08:27:39.965Z,1019.61
2019-02-28T08:28:40.006Z,1019.58
2019-02-28T08:29:45.932Z,1019.58
2019-02-28T08:30:39.970Z,1019.55
2019-02-28T08:31:40.334Z,1019.52
2019-02-28T08:32:46.956Z,1019.51
2019-02-28T08:33:39.896Z,1019.51
2019-02-28T08:34:40.113Z,1019.5
2019-02-28T08:35:39.925Z,1019.49
2019-02-28T08:36:40.168Z,1019.43
2019-02-28T08:37:40.194Z,1019.41
2019-02-28T08:38:40.019Z,1019.41
2019-02-28T08:39:42.129Z,1019.38
2019-02-28T08:40:41.126Z,1019.41
2019-02-28T08:41:39.732Z,1019.43
2019-02-28T08:42:39.897Z,1019.45
2019-02-28T08:43:39.716Z,1019.43
2019-02-28T08:44:39.706Z,1019.46
2019-02-28T08:45:39.921Z,1019.46
2019-02-28T08:46:39.711Z,1019.46
2019-02-28T08:47:39.717Z,1019.47
2019-02-28T08:48:39.706Z,1019.46
2019-02-28T08:49:45.529Z,1019.49
2019-02-28T08:50:39.731Z,1019.46
2019-02-28T08:51:39.705Z,1019.41
2019-02-28T08:52:42.224Z,1019.41
2019-02-28T08:53:39.729Z,1019.44
2019-02-28T08:54:39.690Z,1019.45
2019-02-28T08:55:44.466Z,1019.46
2019-02-28T08:56:39.681Z,1019.45
2019-02-28T08:57:39.689Z,1019.41
2019-02-28T08:58:39.693Z,1019.32
2019-02-28T08:59:39.718Z,1019.31
2019-02-28T09:00:39.709Z,1019.26
2019-02-28T09:01:44.220Z,1019.26
2019-02-28T09:02:39.676Z,1019.22
2019-02-28T09:03:40.703Z,1019.21
2019-02-28T09:04:44.814Z,1019.25
2019-02-28T09:05:39.675Z,1019.28
2019-02-28T09:06:41.713Z,1019.28
2019-02-28T09:07:39.705Z,1019.28
2019-02-28T09:08:39.663Z,1019.29
2019-02-28T09:09:39.676Z,1019.21
2019-02-28T09:10:39.700Z,1019.24
2019-02-28T09:11:39.701Z,1019.2
2019-02-28T09:12:39.679Z,1019.19
2019-02-28T09:13:43.508Z,1019.21
2019-02-28T09:14:39.685Z,1019.2
2019-02-28T09:15:39.660Z,1019.16
2019-02-28T09:16:40.381Z,1019.18
2019-02-28T09:17:39.680Z,1019.19
2019-02-28T09:18:39.671Z,1019.14
2019-02-28T09:19:39.659Z,1019.13
2019-02-28T09:20:45.040Z,1019.1
2019-02-28T09:21:41.360Z,1019.13
2019-02-28T09:22:39.803Z,1019.1
2019-02-28T09:23:39.836Z,1019.1
2019-02-28T09:24:39.817Z,1019.14
2019-02-28T09:25:39.906Z,1019.16
2019-02-28T09:26:39.804Z,1019.18
2019-02-28T09:27:39.847Z,1019.21
2019-02-28T09:28:39.800Z,1019.13
2019-02-28T09:29:39.793Z,1019.13
2019-02-28T09:30:39.807Z,1019.11
2019-02-28T09:31:39.894Z,1019.23
2019-02-28T09:32:39.778Z,1019.21
2019-02-28T09:33:39.777Z,1019.2
2019-02-28T09:34:41.381Z,1019.19
2019-02-28T09:35:46.398Z,1019.23
2019-02-28T09:36:39.796Z,1019.22
2019-02-28T09:37:39.818Z,1019.26
2019-02-28T09:38:45.189Z,1019.27
2019-02-28T09:39:40.085Z,1019.24
2019-02-28T09:40:41.419Z,1019.25
2019-02-28T09:41:41.336Z,1019.14
2019-02-28T09:42:39.793Z,1019.15
2019-02-28T09:43:39.794Z,1019.12
2019-02-28T09:44:39.851Z,1019.11
2019-02-28T09:45:56.366Z,1019.11
2019-02-28T09:46:39.790Z,1019.05
2019-02-28T09:47:39.771Z,1019.09
2019-02-28T09:48:54.522Z,1019.05
2019-02-28T09:49:39.861Z,1019.11
2019-02-28T09:50:39.843Z,1019.14
2019-02-28T09:51:39.798Z,1019.09
2019-02-28T09:52:42.612Z,1019.16
2019-02-28T09:53:51.975Z,1019.1
2019-02-28T09:54:39.791Z,1019.11
2019-02-28T09:55:39.988Z,1019.09
2019-02-28T09:56:44.608Z,1019.12
2019-02-28T09:57:39.760Z,1019.19
2019-02-28T09:58:39.748Z,1019.14
2019-02-28T09:59:40.279Z,1019.12
2019-02-28T10:00:39.828Z,1019.06
2019-02-28T10:01:39.750Z,1018.99
2019-02-28T10:02:44.823Z,1019.01
2019-02-28T10:03:39.762Z,1019.01
2019-02-28T10:04:39.747Z,1019.08
2019-02-28T10:05:43.273Z,1019.14
2019-02-28T10:06:39.866Z,1019.09
2019-02-28T10:07:39.771Z,1019.06
2019-02-28T10:08:39.782Z,1019.04
2019-02-28T10:09:44.988Z,1019.02
2019-02-28T10:10:39.769Z,1018.99
2019-02-28T10:11:40.680Z,1018.99
2019-02-28T10:12:43.242Z,1019.03
2019-02-28T10:13:39.739Z,1018.97
2019-02-28T10:14:39.883Z,1018.98
2019-02-28T10:15:42.517Z,1018.97
2019-02-28T10:16:52.227Z,1018.93
2019-02-28T10:17:39.783Z,1018.92
2019-02-28T10:18:40.967Z,1018.96
2019-02-28T10:19:45.997Z,1018.98
2019-02-28T10:20:39.758Z,1018.94
2019-02-28T10:21:39.772Z,1018.94
2019-02-28T10:22:39.789Z,1018.96
2019-02-28T10:23:39.761Z,1018.95
2019-02-28T10:24:40.260Z,1018.97
2019-02-28T10:25:43.826Z,1018.96
2019-02-28T10:26:39.756Z,1018.88
2019-02-28T10:27:39.918Z,1018.83
2019-02-28T10:28:39.738Z,1018.73
2019-02-28T10:29:42.701Z,1018.77
2019-02-28T10:30:39.723Z,1018.69
2019-02-28T10:31:39.717Z,1018.66
2019-02-28T10:33:39.726Z,1018.71
2019-02-28T10:34:39.727Z,1018.76
2019-02-28T10:35:39.714Z,1018.8
2019-02-28T10:36:39.734Z,1018.79
2019-02-28T10:38:39.639Z,1018.79
2019-02-28T10:39:43.768Z,1018.74
2019-02-28T10:40:40.063Z,1018.77
2019-02-28T10:41:39.705Z,1018.75
2019-02-28T10:42:41.363Z,1018.64
2019-02-28T10:43:39.749Z,1018.62
2019-02-28T10:44:39.708Z,1018.7
2019-02-28T10:45:42.825Z,1018.69
2019-02-28T10:46:39.539Z,1018.67
2019-02-28T10:47:39.695Z,1018.62
2019-02-28T10:48:51.142Z,1018.53
2019-02-28T10:49:39.782Z,1018.54
2019-02-28T10:50:39.706Z,1018.58
2019-02-28T10:51:39.704Z,1018.58
2019-02-28T10:52:39.775Z,1018.6
2019-02-28T10:53:40.321Z,1018.48
2019-02-28T10:54:39.706Z,1018.39
2019-02-28T10:55:39.671Z,1018.47
2019-02-28T10:56:39.849Z,1018.42
2019-02-28T10:57:41.653Z,1018.41
2019-02-28T10:58:39.685Z,1018.33
2019-02-28T10:59:39.826Z,1018.37
2019-02-28T11:00:39.716Z,1018.3
2019-02-28T11:01:42.752Z,1018.28
2019-02-28T11:02:39.863Z,1018.24
2019-02-28T11:03:39.678Z,1018.25
2019-02-28T11:04:44.088Z,1018.25
2019-02-28T11:05:39.857Z,1018.22
2019-02-28T11:06:39.682Z,1018.3
2019-02-28T11:07:39.693Z,1018.3
2019-02-28T11:08:40.258Z,1018.34
2019-02-28T11:09:39.877Z,1018.39
2019-02-28T11:10:39.676Z,1018.34
2019-02-28T11:11:45.579Z,1018.39
2019-02-28T11:12:39.660Z,1018.36
2019-02-28T11:13:39.684Z,1018.35
2019-02-28T11:14:39.948Z,1018.38
2019-02-28T11:15:39.717Z,1018.39
2019-02-28T11:16:39.655Z,1018.39
2019-02-28T11:17:39.638Z,1018.42
2019-02-28T11:18:42.775Z,1018.44
2019-02-28T11:19:39.649Z,1018.49
2019-02-28T11:20:39.660Z,1018.42
2019-02-28T11:21:39.862Z,1018.43
2019-02-28T11:22:41.056Z,1018.44
2019-02-28T11:23:39.661Z,1018.43
2019-02-28T11:24:39.651Z,1018.43
2019-02-28T11:25:39.670Z,1018.36
2019-02-28T11:26:45.451Z,1018.41
2019-02-28T11:27:39.976Z,1018.42
2019-02-28T11:28:39.675Z,1018.41
2019-02-28T11:29:39.635Z,1018.43
2019-02-28T11:30:45.337Z,1018.41
2019-02-28T11:31:39.655Z,1018.41
2019-02-28T11:32:39.643Z,1018.37
2019-02-28T11:33:40.584Z,1018.41
2019-02-28T11:34:39.625Z,1018.31
2019-02-28T11:35:39.631Z,1018.31
2019-02-28T11:36:39.629Z,1018.26
2019-02-28T11:37:46.096Z,1018.26
2019-02-28T11:38:39.672Z,1018.26
2019-02-28T11:39:39.630Z,1018.31
2019-02-28T11:40:43.587Z,1018.2
2019-02-28T11:41:44.446Z,1018.19
2019-02-28T11:42:39.647Z,1018.14
2019-02-28T11:43:40.190Z,1018.13
2019-02-28T11:44:39.619Z,1018.09
2019-02-28T11:45:39.678Z,1018.14
2019-02-28T11:46:39.623Z,1018.03
2019-02-28T11:47:43.419Z,1018.01
2019-02-28T11:48:39.604Z,1018.09
2019-02-28T11:49:39.611Z,1018.04
2019-02-28T11:50:45.031Z,1017.98
2019-02-28T11:51:39.670Z,1018.06
2019-02-28T11:52:39.601Z,1018.02
2019-02-28T11:54:39.605Z,1018.01
2019-02-28T11:55:39.633Z,1017.99
2019-02-28T11:56:39.636Z,1017.96
2019-02-28T11:57:42.175Z,1017.95
2019-02-28T11:58:39.645Z,1017.93
2019-02-28T11:59:39.707Z,1017.91
2019-02-28T12:00:39.665Z,1017.89
2019-02-28T12:01:47.578Z,1017.89
2019-02-28T12:03:00.972Z,1017.95
2019-02-28T12:03:39.759Z,1017.89
2019-02-28T12:04:41.192Z,1017.87
2019-02-28T12:05:39.584Z,1017.94
2019-02-28T12:06:39.663Z,1017.82
2019-02-28T12:07:39.597Z,1017.78
2019-02-28T12:08:44.793Z,1017.71
2019-02-28T12:09:39.628Z,1017.69
2019-02-28T12:10:39.641Z,1017.76